Time;durP1;ratioP1;P1;durP2;ratioP2;P2;SDS_P1;SDS_P2;PMS_P1;PMS_P2;Temp;Humidity;BMP_temperature;BMP_pressure;BME280_temperature;BME280_humidity;BME280_pressure;Samples;Min_cycle;Max_cycle;Signal;HPM_P1;HPM_P2
2023/12/17 00:00:05;;;;;;;12.75;7.03;;;;;;;;;;6065580;29;20048;-96
2023/12/17 00:03:10;;;;;;;8.00;7.05;;;;;;;;;;6049553;29;20059;-96
2023/12/17 00:06:37;;;;;;;6.95;6.57;;;;;;;;;;6199584;23;20060;-96
2023/12/17 00:09:42;;;;;;;10.05;9.15;;;;;;;;;;6361416;23;20031;-96
2023/12/17 00:16:33;;;;;;;7.85;7.45;;;;;;;;;;6155112;23;20057;-96
2023/12/17 00:19:36;;;;;;;8.82;8.38;;;;;;;;;;6047339;29;20065;-96
2023/12/17 00:22:38;;;;;;;8.63;8.13;;;;;;;;;;6497989;23;20052;-96
2023/12/17 00:25:41;;;;;;;10.50;7.07;;;;;;;;;;6035360;29;20046;-95
2023/12/17 00:28:43;;;;;;;7.45;7.00;;;;;;;;;;6017662;29;20057;-96
2023/12/17 00:31:45;;;;;;;11.10;8.40;;;;;;;;;;6055666;23;20123;-96
2023/12/17 00:38:13;;;;;;;7.15;6.85;;;;;;;;;;6301422;23;20057;-96
2023/12/17 00:41:20;;;;;;;6.68;6.07;;;;;;;;;;6229133;23;20040;-96
2023/12/17 00:44:25;;;;;;;7.93;7.22;;;;;;;;;;6086502;29;20049;-96
2023/12/17 00:47:30;;;;;;;7.95;7.35;;;;;;;;;;6052553;29;20056;-96
2023/12/17 00:50:36;;;;;;;7.55;6.82;;;;;;;;;;6085307;23;20067;-96
2023/12/17 00:53:46;;;;;;;12.07;11.43;;;;;;;;;;6127785;23;20028;-94
2023/12/17 00:57:09;;;;;;;6.93;6.63;;;;;;;;;;6245810;23;20084;-96
2023/12/17 01:00:13;;;;;;;10.63;10.13;;;;;;;;;;6626671;23;20023;-96
2023/12/17 01:03:24;;;;;;;8.00;7.47;;;;;;;;;;6105542;23;20047;-96
2023/12/17 01:06:30;;;;;;;19.17;8.13;;;;;;;;;;6995009;23;20968;-96
2023/12/17 01:09:47;;;;;;;7.20;6.78;;;;;;;;;;6266729;23;20213;-95
2023/12/17 01:12:52;;;;;;;6.17;5.87;;;;;;;;;;6041423;29;20059;-96
2023/12/17 01:15:58;;;;;;;7.13;6.72;;;;;;;;;;6059316;29;20052;-96
2023/12/17 01:19:05;;;;;;;7.75;6.18;;;;;;;;;;6062652;29;20052;-96
2023/12/17 01:22:13;;;;;;;6.25;5.85;;;;;;;;;;6795352;23;20057;-96
2023/12/17 01:25:25;;;;;;;10.25;9.48;;;;;;;;;;6427888;23;20023;-96
2023/12/17 01:28:36;;;;;;;9.98;9.32;;;;;;;;;;7076736;23;20031;-95
2023/12/17 01:39:25;;;;;;;15.65;7.15;;;;;;;;;;6921716;23;20239;-96
2023/12/17 01:42:30;;;;;;;9.35;8.93;;;;;;;;;;6421753;23;20031;-96
2023/12/17 01:49:14;;;;;;;10.30;9.50;;;;;;;;;;6663729;23;20634;-94
2023/12/17 01:59:57;;;;;;;8.25;7.65;;;;;;;;;;6679914;23;20104;-96
2023/12/17 02:03:10;;;;;;;7.57;7.18;;;;;;;;;;6476047;23;20038;-96
2023/12/17 02:06:25;;;;;;;6.18;5.68;;;;;;;;;;6346464;23;20053;31
2023/12/17 02:16:44;;;;;;;9.85;9.27;;;;;;;;;;6243534;23;20027;-94
2023/12/17 02:34:32;;;;;;;7.57;7.07;;;;;;;;;;6543335;23;20036;-97
2023/12/17 02:48:33;;;;;;;7.95;7.45;;;;;;;;;;7169655;23;20072;31
2023/12/17 03:02:47;;;;;;;6.05;5.85;;;;;;;;;;6265061;23;20708;-96
2023/12/17 03:06:07;;;;;;;7.90;7.40;;;;;;;;;;7147109;23;20048;31
2023/12/17 03:34:32;;;;;;;6.05;5.78;;;;;;;;;;6728197;23;20049;-96
2023/12/17 03:48:28;;;;;;;6.82;6.53;;;;;;;;;;6987772;23;20130;-96
2023/12/17 03:58:49;;;;;;;6.50;6.20;;;;;;;;;;6924575;23;20186;-96
2023/12/17 04:01:52;;;;;;;8.90;8.40;;;;;;;;;;6889908;23;20019;-92
2023/12/17 04:05:04;;;;;;;7.07;6.78;;;;;;;;;;6856209;23;20023;-96
2023/12/17 04:08:10;;;;;;;8.77;7.85;;;;;;;;;;7119125;23;20365;-96
2023/12/17 04:11:27;;;;;;;6.75;6.35;;;;;;;;;;7028461;23;20027;31
2023/12/17 04:14:29;;;;;;;5.10;4.93;;;;;;;;;;6408641;23;20057;-96
2023/12/17 04:17:48;;;;;;;5.68;5.38;;;;;;;;;;6059089;29;20025;-96
2023/12/17 04:57:45;;;;;;;10.95;10.43;;;;;;;;;;6438606;23;20048;-95
2023/12/17 05:19:21;;;;;;;10.25;9.75;;;;;;;;;;6713901;23;20458;-96
2023/12/17 05:29:41;;;;;;;11.48;10.68;;;;;;;;;;6707534;23;20857;-93
2023/12/17 05:32:46;;;;;;;8.63;8.23;;;;;;;;;;6984129;23;20854;-96
2023/12/17 06:05:59;;;;;;;6.78;6.28;;;;;;;;;;6785453;23;20065;-96
2023/12/17 06:12:44;;;;;;;7.50;7.15;;;;;;;;;;6275280;23;20028;31
2023/12/17 06:27:07;;;;;;;8.60;8.10;;;;;;;;;;6950437;23;20731;31
2023/12/17 07:42:46;;;;;;;8.75;8.07;;;;;;;;;;7076231;23;19921;31
2023/12/17 08:40:42;;;;;;;6.97;6.60;;;;;;;;;;7403228;23;20019;-96
2023/12/17 10:22:24;;;;;;;7.10;6.53;;;;;;;;;;6875431;23;20080;-95
2023/12/17 10:25:27;;;;;;;6.55;6.05;;;;;;;;;;6021756;29;20046;-95
2023/12/17 10:28:32;;;;;;;6.95;6.65;;;;;;;;;;6012676;29;20505;-96
2023/12/17 10:31:37;;;;;;;6.53;6.22;;;;;;;;;;6037222;29;20037;-95
2023/12/17 10:34:40;;;;;;;6.30;5.90;;;;;;;;;;6037731;29;20072;-96
2023/12/17 10:37:43;;;;;;;5.50;5.20;;;;;;;;;;6035831;29;20522;-94
2023/12/17 10:40:46;;;;;;;5.47;5.22;;;;;;;;;;6033511;29;20056;-94
2023/12/17 10:43:50;;;;;;;6.38;6.03;;;;;;;;;;6035116;29;20041;-94
2023/12/17 10:46:53;;;;;;;5.75;5.35;;;;;;;;;;6038177;29;20113;-90
2023/12/17 10:50:02;;;;;;;5.88;5.68;;;;;;;;;;6027965;29;20042;-94
2023/12/17 10:53:17;;;;;;;5.13;4.93;;;;;;;;;;6041138;29;20045;-95
2023/12/17 10:56:20;;;;;;;6.85;6.45;;;;;;;;;;6036963;29;20064;-95
2023/12/17 10:59:26;;;;;;;11.32;6.63;;;;;;;;;;6032214;29;20052;-96
2023/12/17 11:02:57;;;;;;;4.95;4.75;;;;;;;;;;6048657;29;20049;-96
2023/12/17 11:06:11;;;;;;;5.45;5.15;;;;;;;;;;6029943;29;20053;-96
2023/12/17 11:09:28;;;;;;;6.13;5.82;;;;;;;;;;6029352;29;20061;-96
2023/12/17 11:12:40;;;;;;;7.13;6.70;;;;;;;;;;6016424;29;20054;-95
2023/12/17 11:16:09;;;;;;;8.40;7.13;;;;;;;;;;6036540;29;20049;-96
2023/12/17 11:19:21;;;;;;;7.10;6.60;;;;;;;;;;6022244;29;20069;-96
2023/12/17 11:22:38;;;;;;;12.38;9.48;;;;;;;;;;6032079;29;20456;-96
2023/12/17 11:25:47;;;;;;;6.50;5.95;;;;;;;;;;6033586;29;20349;-96
2023/12/17 11:28:55;;;;;;;6.15;5.85;;;;;;;;;;6033991;29;20095;-96
2023/12/17 11:32:11;;;;;;;9.25;7.25;;;;;;;;;;6042940;29;20049;-96
2023/12/17 11:35:30;;;;;;;20.83;12.75;;;;;;;;;;6033073;29;20045;-96
2023/12/17 11:38:43;;;;;;;5.68;5.38;;;;;;;;;;6033563;29;20811;-95
2023/12/17 11:41:51;;;;;;;4.88;4.65;;;;;;;;;;6029680;29;20500;-96
2023/12/17 11:45:05;;;;;;;5.95;5.68;;;;;;;;;;6025220;29;20053;-96
2023/12/17 11:48:17;;;;;;;5.40;5.20;;;;;;;;;;6036241;29;20057;-95
2023/12/17 11:51:35;;;;;;;4.78;4.57;;;;;;;;;;6026892;29;20053;-96
2023/12/17 11:54:42;;;;;;;12.32;9.57;;;;;;;;;;6019288;29;20586;-96
2023/12/17 11:57:48;;;;;;;4.93;4.82;;;;;;;;;;6030653;29;20152;-96
2023/12/17 12:01:11;;;;;;;7.53;7.03;;;;;;;;;;6038526;29;20519;-96
2023/12/17 12:04:32;;;;;;;5.07;4.88;;;;;;;;;;6034933;29;20080;-96
2023/12/17 12:07:45;;;;;;;14.20;8.57;;;;;;;;;;6029123;29;20520;-96
2023/12/17 12:11:02;;;;;;;20.67;13.70;;;;;;;;;;6039111;29;20415;-96
2023/12/17 12:14:15;;;;;;;6.10;5.72;;;;;;;;;;6033005;29;20061;-96
2023/12/17 12:17:38;;;;;;;5.95;5.75;;;;;;;;;;6036738;29;20041;-96
2023/12/17 12:21:03;;;;;;;4.63;4.43;;;;;;;;;;6032739;29;20528;-96
2023/12/17 12:24:19;;;;;;;5.88;5.57;;;;;;;;;;6030157;29;20053;-96
2023/12/17 12:27:28;;;;;;;6.45;6.10;;;;;;;;;;6024008;29;20109;-96
2023/12/17 12:30:34;;;;;;;7.47;7.18;;;;;;;;;;6031642;29;20048;-96
2023/12/17 12:33:54;;;;;;;7.18;6.72;;;;;;;;;;6043951;29;20061;-96
2023/12/17 12:37:30;;;;;;;16.92;8.40;;;;;;;;;;6049521;29;20226;-96
2023/12/17 12:41:10;;;;;;;5.80;5.45;;;;;;;;;;6025068;29;20053;-96
2023/12/17 12:44:30;;;;;;;11.82;8.25;;;;;;;;;;6037430;29;20683;-96
2023/12/17 12:48:07;;;;;;;5.88;5.63;;;;;;;;;;6034132;29;20098;-96
2023/12/17 12:51:56;;;;;;;5.70;5.50;;;;;;;;;;6023934;29;20066;-96
2023/12/17 12:55:24;;;;;;;7.45;6.93;;;;;;;;;;5979178;29;20074;-96
2023/12/17 12:59:08;;;;;;;9.63;7.22;;;;;;;;;;6015871;29;20042;-96
2023/12/17 13:02:41;;;;;;;6.30;6.00;;;;;;;;;;6007439;29;20054;-96
2023/12/17 14:12:47;;;;;;;8.68;8.27;;;;;;;;;;6564718;23;19924;-96
2023/12/17 14:25:33;;;;;;;;;;;;;;;;;;;;;
2023/12/17 14:56:45;;;;;;;5.05;4.85;;;;;;;;;;6639995;23;20116;-96
2023/12/17 16:21:52;;;;;;;;;;;;;;;;;;;;;
2023/12/17 16:29:55;;;;;;;9.68;8.77;;;;;;;;;;5977310;29;20095;-96
2023/12/17 16:34:27;;;;;;;9.48;8.52;;;;;;;;;;5896999;30;20049;-96
2023/12/17 16:38:47;;;;;;;39.78;19.65;;;;;;;;;;5816166;30;20443;-96
2023/12/17 16:42:47;;;;;;;23.80;13.00;;;;;;;;;;5815419;30;20049;-96
2023/12/17 16:46:57;;;;;;;13.52;12.02;;;;;;;;;;5815431;30;20060;-96
2023/12/17 16:50:50;;;;;;;9.90;8.80;;;;;;;;;;5820406;30;20053;-96
2023/12/17 16:53:57;;;;;;;27.30;18.58;;;;;;;;;;5806126;30;20058;-96
2023/12/17 16:57:09;;;;;;;18.80;14.63;;;;;;;;;;5810690;30;20068;-96
2023/12/17 17:00:13;;;;;;;17.15;12.02;;;;;;;;;;5800838;30;20085;-94
2023/12/17 17:03:15;;;;;;;20.75;17.92;;;;;;;;;;5802762;30;20518;-96
2023/12/17 17:06:18;;;;;;;15.05;11.30;;;;;;;;;;5796011;30;20057;-96
2023/12/17 17:09:22;;;;;;;14.27;12.88;;;;;;;;;;5799687;30;20070;-96
2023/12/17 17:12:24;;;;;;;9.15;8.43;;;;;;;;;;5795516;30;20402;-96
2023/12/17 17:15:28;;;;;;;16.30;10.95;;;;;;;;;;5760478;30;20398;-96
2023/12/17 17:18:31;;;;;;;8.30;7.88;;;;;;;;;;5751675;30;20665;-96
2023/12/17 17:21:34;;;;;;;9.68;8.85;;;;;;;;;;5812710;30;20068;-96
2023/12/17 17:24:36;;;;;;;6.82;6.47;;;;;;;;;;5855279;30;20508;-96
2023/12/17 17:27:39;;;;;;;35.45;17.15;;;;;;;;;;5857002;30;20080;-96
2023/12/17 17:30:42;;;;;;;17.75;14.60;;;;;;;;;;5863975;30;20060;-96
2023/12/17 17:33:45;;;;;;;10.35;7.47;;;;;;;;;;5864436;30;20109;-96
2023/12/17 17:36:48;;;;;;;9.07;8.50;;;;;;;;;;5888670;30;20629;-96
2023/12/17 17:39:52;;;;;;;9.43;8.68;;;;;;;;;;5884571;30;20093;-96
2023/12/17 17:42:56;;;;;;;8.20;7.80;;;;;;;;;;5922286;29;20060;-95
2023/12/17 17:45:58;;;;;;;7.78;7.32;;;;;;;;;;5909307;30;20558;-96
2023/12/17 17:49:01;;;;;;;10.57;8.68;;;;;;;;;;5939463;29;20062;-96
2023/12/17 17:52:04;;;;;;;11.15;7.10;;;;;;;;;;6000212;29;20237;-96
2023/12/17 17:55:10;;;;;;;10.13;9.55;;;;;;;;;;5996532;29;20045;-96
2023/12/17 17:58:12;;;;;;;17.08;15.38;;;;;;;;;;6013426;29;20050;-96
2023/12/17 18:01:16;;;;;;;8.60;8.10;;;;;;;;;;5986007;29;20465;-96
2023/12/17 18:04:21;;;;;;;16.30;12.15;;;;;;;;;;5994201;29;20054;-96
2023/12/17 18:07:25;;;;;;;16.65;12.90;;;;;;;;;;6001613;29;20665;-96
2023/12/17 18:10:27;;;;;;;7.80;7.30;;;;;;;;;;5999681;29;20465;-95
2023/12/17 18:13:33;;;;;;;11.98;8.88;;;;;;;;;;6019551;29;20050;-96
2023/12/17 18:16:35;;;;;;;9.15;8.55;;;;;;;;;;5999571;29;20054;-96
2023/12/17 18:19:38;;;;;;;10.95;10.13;;;;;;;;;;5999976;29;20136;-96
2023/12/17 18:22:40;;;;;;;15.77;12.40;;;;;;;;;;6015030;29;20050;-96
2023/12/17 18:25:44;;;;;;;19.35;12.55;;;;;;;;;;6014936;29;20077;-95
2023/12/17 18:28:49;;;;;;;8.85;8.18;;;;;;;;;;6014256;29;20519;-95
2023/12/17 18:31:52;;;;;;;12.45;11.27;;;;;;;;;;6008536;29;20474;-96
2023/12/17 18:34:54;;;;;;;21.83;12.52;;;;;;;;;;6010712;29;20053;-96
2023/12/17 18:37:58;;;;;;;12.98;9.65;;;;;;;;;;6002376;29;20051;-96
2023/12/17 18:41:00;;;;;;;11.20;8.57;;;;;;;;;;5997683;29;20050;-96
2023/12/17 18:44:06;;;;;;;21.05;14.07;;;;;;;;;;6000045;29;20058;-95
2023/12/17 18:47:11;;;;;;;9.02;8.27;;;;;;;;;;6010900;29;20050;-96
2023/12/17 18:50:16;;;;;;;9.68;9.05;;;;;;;;;;6000969;29;20528;-96
2023/12/17 18:53:19;;;;;;;15.88;14.30;;;;;;;;;;6005781;29;20156;-96
2023/12/17 18:56:21;;;;;;;18.38;15.98;;;;;;;;;;6014268;29;20111;-96
2023/12/17 18:59:24;;;;;;;11.10;9.90;;;;;;;;;;5998838;29;20058;-96
2023/12/17 19:02:32;;;;;;;9.25;8.75;;;;;;;;;;5995531;29;20145;-96
2023/12/17 19:05:36;;;;;;;11.90;9.55;;;;;;;;;;5997408;29;20510;-95
2023/12/17 19:08:38;;;;;;;8.73;8.23;;;;;;;;;;5980269;29;20049;-96
2023/12/17 19:11:44;;;;;;;10.10;7.40;;;;;;;;;;6005393;29;20465;-96
2023/12/17 19:14:46;;;;;;;9.25;8.55;;;;;;;;;;5991563;29;20552;-96
2023/12/17 19:17:48;;;;;;;8.60;7.82;;;;;;;;;;5996877;29;20057;-95
2023/12/17 19:20:51;;;;;;;10.27;9.48;;;;;;;;;;6006621;29;20045;-95
2023/12/17 19:23:53;;;;;;;12.35;11.18;;;;;;;;;;6005371;29;20050;-96
2023/12/17 19:26:56;;;;;;;16.02;11.15;;;;;;;;;;5993845;29;20082;-95
2023/12/17 19:29:58;;;;;;;30.70;16.00;;;;;;;;;;6008024;29;20168;-95
2023/12/17 19:33:03;;;;;;;9.52;9.00;;;;;;;;;;6012878;29;20053;-95
2023/12/17 19:36:10;;;;;;;12.20;8.23;;;;;;;;;;6001281;29;20049;-96
2023/12/17 19:39:12;;;;;;;9.32;8.40;;;;;;;;;;6006206;29;20054;-96
2023/12/17 19:42:15;;;;;;;5.57;5.38;;;;;;;;;;6014421;29;20140;-96
2023/12/17 19:45:17;;;;;;;6.95;6.63;;;;;;;;;;6009207;29;20756;-96
2023/12/17 19:48:20;;;;;;;7.43;7.00;;;;;;;;;;6015235;29;20053;-96
2023/12/17 19:51:24;;;;;;;10.02;8.27;;;;;;;;;;5977143;29;20255;-96
2023/12/17 19:54:27;;;;;;;15.07;9.75;;;;;;;;;;6000093;29;20370;-96
2023/12/17 19:57:30;;;;;;;13.75;10.48;;;;;;;;;;6012398;29;20081;-96
2023/12/17 20:00:34;;;;;;;21.92;15.75;;;;;;;;;;6013415;29;20186;-96
2023/12/17 20:03:36;;;;;;;11.60;10.45;;;;;;;;;;6010223;29;20149;-96
2023/12/17 20:06:39;;;;;;;11.77;7.55;;;;;;;;;;5998849;29;20517;-96
2023/12/17 20:09:45;;;;;;;6.82;6.53;;;;;;;;;;5995505;29;20057;-96
2023/12/17 20:12:51;;;;;;;6.30;6.10;;;;;;;;;;5996367;29;20038;-96
2023/12/17 20:15:53;;;;;;;6.25;5.95;;;;;;;;;;5993046;29;20597;-96
2023/12/17 20:18:56;;;;;;;6.05;5.85;;;;;;;;;;6009532;29;20050;-96
2023/12/17 20:21:59;;;;;;;5.75;5.45;;;;;;;;;;6014449;29;20050;-96
2023/12/17 20:25:01;;;;;;;6.65;6.25;;;;;;;;;;5995846;29;20053;-96
2023/12/17 20:28:15;;;;;;;6.85;6.55;;;;;;;;;;6012124;29;20172;-96
2023/12/17 20:31:19;;;;;;;6.82;6.53;;;;;;;;;;5999023;29;20115;-96
2023/12/17 20:34:22;;;;;;;5.65;5.35;;;;;;;;;;6001423;29;20053;-96
2023/12/17 20:37:25;;;;;;;6.53;6.13;;;;;;;;;;5993183;29;20127;-96
2023/12/17 20:40:30;;;;;;;5.40;5.20;;;;;;;;;;5998044;29;20050;-96
2023/12/17 20:43:34;;;;;;;6.22;5.93;;;;;;;;;;5993968;29;20050;-96
2023/12/17 20:46:36;;;;;;;5.88;5.63;;;;;;;;;;5990844;29;20034;-96
2023/12/17 20:49:39;;;;;;;5.63;5.38;;;;;;;;;;5996563;29;20445;-96
2023/12/17 20:52:42;;;;;;;6.70;6.25;;;;;;;;;;5999172;29;20057;-96
2023/12/17 20:55:45;;;;;;;6.25;5.95;;;;;;;;;;6012019;29;20440;-96
2023/12/17 20:58:51;;;;;;;5.22;5.05;;;;;;;;;;6001550;29;20392;-96
2023/12/17 21:01:56;;;;;;;6.32;6.03;;;;;;;;;;6009064;29;20085;-96
2023/12/17 21:05:00;;;;;;;6.65;6.35;;;;;;;;;;6001115;29;20496;-96
2023/12/17 21:08:06;;;;;;;5.55;5.30;;;;;;;;;;5995909;29;20441;-96
2023/12/17 21:11:09;;;;;;;5.40;5.20;;;;;;;;;;6013095;29;20054;-96
2023/12/17 21:14:12;;;;;;;5.90;5.65;;;;;;;;;;5998615;29;20069;-96
2023/12/17 21:17:14;;;;;;;6.40;6.10;;;;;;;;;;5991663;29;20561;-96
2023/12/17 21:20:16;;;;;;;6.35;6.05;;;;;;;;;;5990427;29;20046;-96
2023/12/17 21:23:18;;;;;;;6.25;5.88;;;;;;;;;;6011805;29;20053;-95
2023/12/17 21:26:21;;;;;;;5.10;4.90;;;;;;;;;;5993716;29;20081;-96
2023/12/17 21:29:23;;;;;;;5.32;5.13;;;;;;;;;;6000484;29;20049;-96
2023/12/17 21:32:25;;;;;;;6.22;5.68;;;;;;;;;;6010649;29;20513;-95
2023/12/17 21:35:33;;;;;;;5.18;4.97;;;;;;;;;;5999172;29;20075;-96
2023/12/17 21:38:35;;;;;;;5.57;5.38;;;;;;;;;;5996324;29;20061;-95
2023/12/17 21:41:37;;;;;;;5.13;4.93;;;;;;;;;;5998120;29;20057;-96
2023/12/17 21:44:40;;;;;;;5.35;5.15;;;;;;;;;;6005471;29;20038;-96
2023/12/17 21:47:43;;;;;;;5.63;5.43;;;;;;;;;;6005742;29;20051;-96
2023/12/17 21:50:46;;;;;;;5.75;5.45;;;;;;;;;;6013286;29;20100;-96
2023/12/17 21:53:48;;;;;;;6.13;5.60;;;;;;;;;;5998601;29;20050;-96
2023/12/17 21:56:51;;;;;;;5.03;4.82;;;;;;;;;;5998314;29;20045;-96
2023/12/17 22:00:15;;;;;;;5.18;4.97;;;;;;;;;;5991571;29;20118;-96
2023/12/17 22:03:18;;;;;;;5.70;5.40;;;;;;;;;;5992813;29;20050;-95
2023/12/17 22:06:20;;;;;;;4.90;4.78;;;;;;;;;;6013229;29;20429;-95
2023/12/17 22:09:23;;;;;;;6.28;5.93;;;;;;;;;;6005707;29;20145;-96
2023/12/17 22:12:25;;;;;;;5.53;5.32;;;;;;;;;;5980652;29;20077;-95
2023/12/17 22:15:27;;;;;;;6.35;6.05;;;;;;;;;;6001267;29;20097;-95
2023/12/17 22:18:30;;;;;;;5.65;5.35;;;;;;;;;;6018274;29;20497;-96
2023/12/17 22:21:32;;;;;;;5.82;5.63;;;;;;;;;;5988737;29;20063;-96
2023/12/17 22:24:35;;;;;;;6.88;6.50;;;;;;;;;;6013254;29;20057;-96
2023/12/17 22:27:39;;;;;;;5.93;5.63;;;;;;;;;;6000877;29;20429;-96
2023/12/17 22:30:42;;;;;;;5.45;5.25;;;;;;;;;;5997117;29;20050;-95
2023/12/17 22:33:48;;;;;;;6.00;5.45;;;;;;;;;;6002185;29;20057;-96
2023/12/17 22:36:50;;;;;;;5.82;5.63;;;;;;;;;;6006025;29;20113;-96
2023/12/17 22:39:52;;;;;;;4.60;4.50;;;;;;;;;;5998748;29;20265;-96
2023/12/17 22:42:54;;;;;;;5.68;5.47;;;;;;;;;;5995946;29;20060;-96
2023/12/17 22:45:57;;;;;;;4.63;4.53;;;;;;;;;;6002367;29;20053;-96
2023/12/17 22:49:03;;;;;;;5.25;5.05;;;;;;;;;;6018711;29;20034;-96
2023/12/17 22:52:06;;;;;;;5.20;5.00;;;;;;;;;;6015129;29;20050;-96
2023/12/17 22:55:11;;;;;;;5.63;5.43;;;;;;;;;;6006125;29;20053;-95
2023/12/17 22:58:14;;;;;;;5.63;5.32;;;;;;;;;;6020101;29;20082;-96
2023/12/17 23:01:16;;;;;;;5.85;5.60;;;;;;;;;;6003313;29;20833;-96
2023/12/17 23:04:20;;;;;;;5.15;4.95;;;;;;;;;;6022044;29;20533;-96
2023/12/17 23:07:22;;;;;;;5.68;5.38;;;;;;;;;;6007646;29;20619;-94
2023/12/17 23:10:24;;;;;;;5.82;5.22;;;;;;;;;;5998630;29;20058;-94
2023/12/17 23:13:26;;;;;;;5.43;5.03;;;;;;;;;;6000657;29;20053;-94
2023/12/17 23:16:28;;;;;;;5.22;5.03;;;;;;;;;;6008042;29;20038;-94
2023/12/17 23:19:30;;;;;;;5.32;5.13;;;;;;;;;;6003823;29;20527;-94
2023/12/17 23:22:32;;;;;;;5.50;5.30;;;;;;;;;;6001916;29;20386;-95
2023/12/17 23:25:34;;;;;;;4.85;4.75;;;;;;;;;;6012487;29;20050;-94
2023/12/17 23:28:36;;;;;;;5.53;5.32;;;;;;;;;;6008295;29;20057;-95
2023/12/17 23:31:38;;;;;;;4.85;4.75;;;;;;;;;;6002886;29;20117;-94
2023/12/17 23:34:40;;;;;;;4.38;4.28;;;;;;;;;;5996457;29;20077;-95
2023/12/17 23:37:42;;;;;;;5.10;4.90;;;;;;;;;;5999333;29;20118;-94
2023/12/17 23:40:47;;;;;;;5.47;5.25;;;;;;;;;;5999612;29;20045;-95
2023/12/17 23:43:49;;;;;;;5.88;5.68;;;;;;;;;;5998933;29;20420;-95
2023/12/17 23:46:51;;;;;;;5.35;5.15;;;;;;;;;;6015831;29;20458;-93
2023/12/17 23:49:53;;;;;;;6.38;6.03;;;;;;;;;;6016266;29;20101;-95
2023/12/17 23:52:55;;;;;;;5.78;5.47;;;;;;;;;;6000629;29;20449;-96
2023/12/17 23:55:57;;;;;;;5.10;4.90;;;;;;;;;;5991769;29;20117;-95
2023/12/17 23:58:59;;;;;;;5.35;5.15;;;;;;;;;;6002184;29;20077;-94
